createdAt,value
2023-02-11T00:03:15.242Z,13.6
2023-02-11T00:08:15.220Z,13.2
2023-02-11T00:13:15.223Z,13.4
2023-02-11T00:18:15.231Z,12.3
2023-02-11T00:23:15.227Z,11.8
2023-02-11T00:28:15.299Z,11.0
2023-02-11T00:33:15.232Z,11.2
2023-02-11T00:38:15.237Z,11.4
2023-02-11T00:43:15.230Z,10.4
2023-02-11T00:48:15.232Z,10.2
2023-02-11T00:53:15.229Z,10.4
2023-02-11T00:58:15.246Z,9.1
2023-02-11T01:03:15.238Z,9.0
2023-02-11T01:08:15.250Z,9.1
2023-02-11T01:13:15.245Z,9.2
2023-02-11T01:18:15.257Z,8.6
2023-02-11T01:23:15.261Z,9.4
2023-02-11T01:28:15.273Z,8.8
2023-02-11T01:33:15.267Z,8.6
2023-02-11T01:38:15.269Z,8.6
2023-02-11T01:43:15.266Z,8.1
2023-02-11T01:48:15.271Z,8.3
2023-02-11T01:53:15.268Z,7.7
2023-02-11T01:58:15.281Z,8.4
2023-02-11T02:03:15.323Z,7.8
2023-02-11T02:08:15.282Z,8.0
2023-02-11T02:13:15.282Z,8.6
2023-02-11T02:18:15.280Z,7.9
2023-02-11T02:23:15.287Z,7.8
2023-02-11T02:28:15.320Z,8.4
2023-02-11T02:33:22.395Z,7.9
2023-02-11T02:38:15.322Z,8.5
2023-02-11T02:43:15.302Z,7.8
2023-02-11T02:48:15.296Z,7.7
2023-02-11T02:53:15.309Z,7.9
2023-02-11T02:58:15.302Z,8.5
2023-02-11T03:03:15.309Z,7.9
2023-02-11T03:08:15.315Z,8.2
2023-02-11T03:13:15.312Z,8.2
2023-02-11T03:18:15.311Z,7.4
2023-02-11T03:23:15.311Z,7.6
2023-02-11T03:28:15.370Z,8.1
2023-02-11T03:33:15.334Z,7.5
2023-02-11T03:38:15.322Z,8.1
2023-02-11T03:43:15.336Z,7.4
2023-02-11T03:48:15.333Z,8.2
2023-02-11T03:53:15.335Z,8.3
2023-02-11T03:58:15.334Z,7.4
2023-02-11T04:03:15.461Z,8.0
2023-02-11T04:08:15.365Z,8.5
2023-02-11T04:13:15.329Z,7.9
2023-02-11T04:18:15.348Z,7.6
2023-02-11T04:23:15.341Z,7.9
2023-02-11T04:28:15.365Z,7.8
2023-02-11T04:33:15.349Z,8.7
2023-02-11T04:38:15.391Z,7.8
2023-02-11T04:43:15.359Z,8.1
2023-02-11T04:48:15.405Z,8.0
2023-02-11T04:53:15.367Z,7.6
2023-02-11T04:58:15.360Z,7.8
2023-02-11T05:03:15.364Z,8.0
2023-02-11T05:08:15.369Z,8.1
2023-02-11T05:13:15.369Z,7.4
2023-02-11T05:18:15.383Z,7.8
2023-02-11T05:23:15.376Z,7.6
2023-02-11T05:28:15.425Z,8.5
2023-02-11T05:33:15.384Z,8.3
2023-02-11T05:38:15.401Z,7.6
2023-02-11T05:43:15.383Z,8.1
2023-02-11T05:48:15.388Z,8.2
2023-02-11T05:53:15.395Z,9.1
2023-02-11T05:58:15.395Z,8.9
2023-02-11T06:03:15.455Z,8.4
2023-02-11T06:08:15.421Z,8.9
2023-02-11T06:13:15.416Z,9.3
2023-02-11T06:18:15.406Z,9.0
2023-02-11T06:23:15.416Z,9.4
2023-02-11T06:28:15.499Z,10.4
2023-02-11T06:33:15.419Z,9.2
2023-02-11T06:38:15.415Z,9.8
2023-02-11T06:43:15.421Z,9.8
2023-02-11T06:48:15.434Z,9.1
2023-02-11T06:53:15.429Z,8.7
2023-02-11T06:58:15.436Z,9.1
2023-02-11T07:03:15.521Z,10.0
2023-02-11T07:08:15.452Z,9.5
2023-02-11T07:13:15.441Z,9.7
2023-02-11T07:18:15.445Z,10.3
2023-02-11T07:23:15.442Z,10.1
2023-02-11T07:28:15.447Z,10.9
2023-02-11T07:33:15.445Z,11.1
2023-02-11T07:38:15.444Z,10.9
2023-02-11T07:43:15.453Z,11.2
2023-02-11T07:53:15.455Z,12.3
2023-02-11T07:58:15.452Z,12.3
2023-02-11T08:03:15.469Z,12.4
2023-02-11T08:08:15.492Z,12.9
2023-02-11T08:13:15.460Z,13.3
2023-02-11T08:23:15.465Z,12.8
2023-02-11T08:28:15.563Z,13.1
2023-02-11T08:33:15.472Z,14.0
2023-02-11T08:38:15.479Z,14.1
2023-02-11T08:43:15.545Z,14.0
2023-02-11T08:48:15.483Z,14.2
2023-02-11T08:53:15.487Z,14.2
2023-02-11T08:58:18.099Z,13.4
2023-02-11T09:03:15.542Z,15.6
2023-02-11T09:08:15.504Z,16.0
2023-02-11T09:13:15.505Z,14.7
2023-02-11T09:18:15.507Z,14.9
2023-02-11T09:23:18.243Z,15.3
2023-02-11T09:28:15.626Z,14.7
2023-02-11T09:33:15.514Z,16.2
2023-02-11T09:38:15.510Z,14.8
2023-02-11T09:43:15.522Z,15.4
2023-02-11T09:48:15.516Z,15.3
2023-02-11T09:53:15.528Z,16.4
2023-02-11T09:58:15.528Z,15.4
2023-02-11T10:03:15.542Z,16.2
2023-02-11T10:08:17.050Z,15.1
2023-02-11T10:13:15.541Z,15.9
2023-02-11T10:18:15.548Z,15.2
2023-02-11T10:23:15.576Z,15.6
2023-02-11T10:28:15.700Z,16.8
2023-02-11T10:33:15.556Z,16.1
2023-02-11T10:38:15.577Z,15.6
2023-02-11T10:43:15.560Z,16.0
2023-02-11T10:48:16.523Z,16.2
2023-02-11T10:53:15.577Z,16.3
2023-02-11T10:58:15.565Z,15.8
2023-02-11T11:03:15.590Z,17.4
2023-02-11T11:08:15.581Z,17.3
2023-02-11T11:13:15.629Z,17.8
2023-02-11T11:18:22.047Z,16.4
2023-02-11T11:23:15.594Z,16.7
2023-02-11T11:28:15.609Z,16.7
2023-02-11T11:33:15.612Z,17.2
2023-02-11T11:38:15.593Z,16.7
2023-02-11T11:43:15.584Z,16.7
2023-02-11T11:48:15.592Z,16.9
2023-02-11T11:53:15.497Z,16.8
2023-02-11T11:58:15.641Z,16.7
2023-02-11T12:03:15.707Z,17.3
2023-02-11T12:08:15.601Z,17.1
2023-02-11T12:13:15.512Z,17.2
2023-02-11T12:18:15.557Z,15.6
2023-02-11T12:23:15.542Z,16.3
2023-02-11T12:28:15.582Z,15.4
2023-02-11T12:33:15.525Z,13.8
2023-02-11T12:38:15.532Z,14.1
2023-02-11T12:43:15.523Z,12.3
2023-02-11T12:48:15.547Z,13.2
2023-02-11T12:53:15.532Z,12.9
2023-02-11T12:58:15.546Z,12.1
2023-02-11T13:03:15.550Z,11.9
2023-02-11T13:08:15.552Z,11.7
2023-02-11T13:13:15.559Z,12.0
2023-02-11T13:18:18.101Z,11.4
2023-02-11T13:23:15.560Z,10.9
2023-02-11T13:28:15.589Z,10.3
2023-02-11T13:33:15.563Z,9.8
2023-02-11T13:38:15.574Z,9.1
2023-02-11T13:43:15.579Z,9.6
2023-02-11T13:48:15.573Z,10.4
2023-02-11T13:53:16.156Z,10.1
2023-02-11T13:58:15.590Z,10.4
2023-02-11T14:03:15.584Z,10.3
2023-02-11T14:08:15.581Z,11.2
2023-02-11T14:13:15.587Z,11.6
2023-02-11T14:18:15.587Z,11.4
2023-02-11T14:23:15.604Z,11.4
2023-02-11T14:28:15.641Z,11.2
2023-02-11T14:33:15.597Z,10.9
2023-02-11T14:38:15.603Z,10.8
2023-02-11T14:43:15.608Z,11.3
2023-02-11T14:48:15.616Z,11.8
2023-02-11T14:53:15.611Z,12.1
2023-02-11T14:58:15.646Z,11.2
2023-02-11T15:03:15.610Z,11.2
2023-02-11T15:08:15.619Z,10.9
2023-02-11T15:13:15.624Z,11.0
2023-02-11T15:18:15.623Z,11.6
2023-02-11T15:23:15.641Z,10.7
2023-02-11T15:28:15.694Z,11.2
2023-02-11T15:33:15.639Z,10.7
2023-02-11T15:38:15.634Z,11.2
2023-02-11T15:43:15.641Z,9.9
2023-02-11T15:48:15.649Z,9.4
2023-02-11T15:53:15.709Z,9.7
2023-02-11T15:58:15.650Z,9.0
2023-02-11T16:03:15.652Z,9.3
2023-02-11T16:08:15.649Z,9.4
2023-02-11T16:13:15.650Z,9.1
2023-02-11T16:18:15.654Z,8.8
2023-02-11T16:23:15.658Z,10.5
2023-02-11T16:28:15.725Z,9.7
2023-02-11T16:33:15.661Z,10.0
2023-02-11T16:38:15.663Z,9.8
2023-02-11T16:43:15.683Z,10.3
2023-02-11T16:48:15.677Z,11.3
2023-02-11T16:53:15.672Z,11.3
2023-02-11T16:58:15.682Z,11.5
2023-02-11T17:03:15.673Z,10.7
2023-02-11T17:08:15.678Z,10.8
2023-02-11T17:13:15.677Z,11.8
2023-02-11T17:18:15.676Z,12.3
2023-02-11T17:23:15.709Z,13.3
2023-02-11T17:28:15.710Z,12.7
2023-02-11T17:33:15.692Z,13.3
2023-02-11T17:38:15.682Z,15.5
2023-02-11T17:43:15.697Z,14.5
2023-02-11T17:48:15.698Z,14.5
2023-02-11T17:53:15.697Z,15.1
2023-02-11T17:58:15.712Z,15.7
2023-02-11T18:03:15.715Z,16.4
2023-02-11T18:08:15.803Z,16.1
2023-02-11T18:13:15.806Z,15.2
2023-02-11T18:18:15.810Z,15.0
2023-02-11T18:23:15.810Z,14.9
2023-02-11T18:28:15.839Z,16.1
2023-02-11T18:33:15.818Z,16.5
2023-02-11T18:38:15.826Z,15.3
2023-02-11T18:43:15.823Z,16.2
2023-02-11T18:48:15.836Z,17.2
2023-02-11T18:53:15.838Z,18.0
2023-02-11T18:58:15.845Z,16.9
2023-02-11T19:03:15.903Z,16.3
2023-02-11T19:08:15.835Z,17.4
2023-02-11T19:13:15.848Z,16.9
2023-02-11T19:18:15.857Z,17.0
2023-02-11T19:23:15.863Z,17.0
2023-02-11T19:28:15.952Z,17.3
2023-02-11T19:33:15.846Z,16.2
2023-02-11T19:38:15.855Z,16.5
2023-02-11T19:43:15.860Z,16.6
2023-02-11T19:48:15.856Z,16.4
2023-02-11T19:53:15.869Z,17.1
2023-02-11T19:58:15.920Z,18.7
2023-02-11T20:03:15.869Z,17.7
2023-02-11T20:08:15.883Z,18.2
2023-02-11T20:13:15.875Z,17.3
2023-02-11T20:18:15.886Z,17.5
2023-02-11T20:23:15.873Z,18.1
2023-02-11T20:28:16.001Z,15.9
2023-02-11T20:33:15.875Z,15.7
2023-02-11T20:38:15.883Z,15.9
2023-02-11T20:43:15.887Z,15.5
2023-02-11T20:48:15.889Z,16.2
2023-02-11T20:53:15.905Z,16.2
2023-02-11T20:58:15.895Z,16.0
2023-02-11T21:03:15.917Z,17.2
2023-02-11T21:08:15.911Z,16.7
2023-02-11T21:13:15.938Z,17.7
2023-02-11T21:18:15.909Z,17.9
2023-02-11T21:23:15.905Z,16.6
2023-02-11T21:28:15.989Z,16.6
2023-02-11T21:33:15.916Z,16.1
2023-02-11T21:38:15.923Z,15.9
2023-02-11T21:43:15.926Z,16.2
2023-02-11T21:48:15.946Z,17.0
2023-02-11T21:53:15.927Z,15.1
2023-02-11T21:58:15.933Z,16.0
2023-02-11T22:03:15.935Z,14.6
2023-02-11T22:08:17.998Z,16.8
2023-02-11T22:13:15.945Z,16.3
2023-02-11T22:18:15.944Z,15.4
2023-02-11T22:23:15.949Z,15.8
2023-02-11T22:28:16.146Z,15.6
2023-02-11T22:33:15.945Z,15.1
2023-02-11T22:38:15.949Z,16.5
2023-02-11T22:43:15.974Z,15.4
2023-02-11T22:48:16.203Z,16.3
2023-02-11T22:53:15.955Z,15.9
2023-02-11T22:58:15.956Z,15.1
2023-02-11T23:03:15.956Z,15.4
2023-02-11T23:08:15.951Z,15.8
2023-02-11T23:13:15.975Z,15.1
2023-02-11T23:18:15.962Z,15.5
2023-02-11T23:23:15.970Z,13.9
2023-02-11T23:28:16.047Z,13.6
2023-02-11T23:33:15.966Z,13.8
2023-02-11T23:38:15.980Z,12.3
2023-02-11T23:43:15.986Z,13.6
2023-02-11T23:48:15.994Z,13.3
2023-02-11T23:53:15.986Z,12.8
2023-02-11T23:58:16.000Z,12.9
